Nearby METAR Reports

 

K8A0 - Albertville Muni, AL
Distance from station: SW 1mi, 2km
Updated: Sat, 04-Dec-2021 6:35am CST
Overcast
Overcast
 Wind from W
Wind: W 3 mph , 6 km/h
Temperature: 50°F , 10°C
Dew Point: 50°F , 10°C
Humidity: 100%
Barometer: 30.10 inHg , 1019.3 hPa
Clouds: Overcast
Visibility: 1/4 mile , 0.4 km
Cloud details: Overcast 100 ft
2021/12/04 12:35 K8A0 041235Z AUTO 26003KT 1/4SM OVC001 10/10 A3010 RMK AO2
KGAD - Gadsden Muni, AL
Distance from station: SSE 21mi, 35km
Updated: Sat, 04-Dec-2021 6:43am CST
Mist, Mostly cloudy
Mist, Mostly cloudy
 Wind from calm
Wind: Calm
Temperature: 43°F , 6°C
Dew Point: 41°F , 5°C
Humidity: 93%
Barometer: 30.12 inHg , 1020 hPa
Summary: Mist
Clouds: Mostly cloudy
Visibility: 6 miles , 10 km
Cloud details: Mostly cloudy 200 ft
Mostly cloudy 600 ft
2021/12/04 12:43 KGAD 041243Z AUTO 00000KT 6SM BR BKN002 BKN006 06/05 A3012 RMK AO2 $
 
K4A6 - Scottsboro, AL
Distance from station: NNE 33mi, 53km
Updated: Sat, 04-Dec-2021 6:35am CST
Mostly cloudy
Mostly cloudy
 Wind from calm
Wind: Calm
Temperature: 46°F , 8°C
Dew Point: 46°F , 8°C
Humidity: 100%
Barometer: 30.11 inHg , 1019.6 hPa
Clouds: Mostly cloudy
Visibility: 9 miles , 14 km
Cloud details: Partly cloudy 2100 ft
Mostly cloudy 3300 ft
2021/12/04 12:35 K4A6 041235Z AUTO 00000KT 9SM SCT021 BKN033 08/08 A3011 RMK AO2
K4A9 - Ft Payne, AL
Distance from station: ENE 33mi, 54km
Updated: Sat, 04-Dec-2021 6:35am CST
Mist, Mostly cloudy
Mist, Mostly cloudy
 Wind from calm
Wind: Calm
Temperature: 43°F , 6°C
Dew Point: 43°F , 6°C
Humidity: 100%
Barometer: 30.10 inHg , 1019.3 hPa
Summary: Mist
Clouds: Mostly cloudy
Visibility: 4 miles , 6 km
Cloud details: Mostly cloudy 200 ft
2021/12/04 12:35 K4A9 041235Z AUTO 00000KT 4SM BR BKN002 06/06 A3010 RMK AO2 T00610055
 
KMDQ - Huntsville, AL
Distance from station: NNW 47mi, 75km
Updated: Sat, 04-Dec-2021 6:35am CST
Mist, Overcast
Mist, Overcast
 Wind from calm
Wind: Calm
Temperature: 50°F , 10°C
Dew Point: 50°F , 10°C
Humidity: 100%
Barometer: 30.09 inHg , 1019 hPa
Summary: Mist
Clouds: Overcast
Visibility: 7 miles , 11 km
Cloud details: Overcast 1200 ft
2021/12/04 12:35 KMDQ 041235Z AUTO 00000KT 7SM BR OVC012 10/10 A3009 RMK A02 T01050096
KDCU - Decatur, AL
Distance from station: NW 49mi, 80km
Updated: Sat, 04-Dec-2021 5:53am CST
Mist, Overcast
Mist, Overcast
 Wind from calm
Wind: Calm
Temperature: 52°F , 11°C
Dew Point: 52°F , 11°C
Humidity: 100%
Barometer: 30.08 inHg , 1018.6 hPa
Summary: Mist
Clouds: Overcast
Visibility: 4 miles , 6 km
Cloud details: Overcast 1200 ft
2021/12/04 11:53 KDCU 041153Z AUTO 00000KT 4SM BR OVC012 11/11 A3008 RMK AO2 SLP185 T01110111 10117 20072 53004
 
KGKT - Sevierville, TN
Distance from station: NE 235mi, 378km
Updated: Sat, 04-Dec-2021 6:35am CST
Clear
Clear
 Wind from calm
Wind: Calm
Temperature: 41°F , 5°C
Dew Point: 39°F , 4°C
Humidity: 93%
Barometer: 30.10 inHg , 1019.3 hPa
Clouds: Clear
Visibility: 10 miles , 16 km
2021/12/04 12:35 KGKT 041235Z AUTO 00000KT 10SM CLR 05/04 A3010 RMK A01
KSSI - Jeckyll Island, GA
Distance from station: SE 467mi, 752km
Updated: Sat, 04-Dec-2021 5:53am CST
Mist, Clear
Mist, Clear
 Wind from W
Wind: W 5 mph , 7 km/h
Temperature: 54°F , 12°C
Dew Point: 52°F , 11°C
Humidity: 94%
Barometer: 30.12 inHg , 1020 hPa
Summary: Mist
Clouds: Clear
Visibility: 3 miles , 5 km
2021/12/04 11:53 KSSI 041153Z AUTO 26004KT 3SM BR CLR 12/11 A3012 RMK AO2 SLP200 T01170111 10150 20111 51007 $
 
KECP - Panama City, FL
Distance from station: S 330mi, 531km
Updated: Sat, 04-Dec-2021 5:53am CST
Fog, Overcast
Fog, Overcast
 Wind from calm
Wind: Calm
Temperature: 50°F , 10°C
Dew Point: 50°F , 10°C
Humidity: 100%
Barometer: 30.11 inHg , 1019.6 hPa
Summary: Fog
Clouds: Overcast
Visibility: 1/4 mile , 0.4 km
Cloud details: Overcast 100 ft
2021/12/04 11:53 KECP 041153Z 00000KT 1/4SM R16/1200V2000FT FG VV001 10/10 A3011 RMK AO2 SLP208 T01000100 10117 20100 53005
KTPA - Tampa, FL,
Distance from station: S 600mi, 965km
Updated: Sat, 04-Dec-2021 5:53am CST
Mist, Clear
Mist, Clear
 Wind from calm
Wind: Calm
Temperature: 57°F , 14°C
Dew Point: 54°F , 12°C
Humidity: 88%
Barometer: 30.15 inHg , 1021 hPa
Summary: Mist
Clouds: Clear
Visibility: 6 miles , 10 km
2021/12/04 11:53 KTPA 041153Z 00000KT 6SM BR CLR 14/12 A3015 RMK AO2 SLP208 T01390122 10161 20128 53008 $
 
KMTH - Marathon, FL,
Distance from station: S 915mi, 1473km
Updated: Sat, 04-Dec-2021 5:53am CST
Overcast
Overcast
 Wind from NNE
Wind: NNE 8 mph , 13 km/h
Temperature: 70°F , 21°C
Dew Point: 66°F , 19°C
Humidity: 88%
Barometer: 30.08 inHg , 1018.6 hPa
Clouds: Overcast
Visibility: 10 miles , 16 km
Cloud details: Overcast 3800 ft
2021/12/04 11:53 KMTH 041153Z AUTO 02007KT 10SM OVC038 21/19 A3008 RMK AO2 SLP185 T02110189 10211 20200 53004
KNYL - Yuma, AZ
Distance from station: W 3147mi, 5065km
Updated: Sat, 04-Dec-2021 5:57am CST
Clear
Clear
 Wind from calm
Wind: Calm
Temperature: 54°F , 12°C
Dew Point: 43°F , 6°C
Humidity: 67%
Barometer: 30.02 inHg , 1016.6 hPa
Clouds: Clear
Visibility: 10 miles , 16 km
2021/12/04 11:57 KNYL 041157Z AUTO 00000KT 10SM CLR 12/06 A3002 RMK AO2 SLP163 T01170056 10150 20117 56000
 
PABI - Ft. Greely, AK
Distance from station: NW 4300mi, 7167km
Updated: Sat, 04-Dec-2021 5:53am CST
Clear
Clear
 Wind from ESE
Wind: ESE 28 mph , 44 km/h, Gust: 33 mph , 54 km/h
Temperature: -11°F , -24°C
Wind Chill: -40°F , -40°C
Dew Point: -22°F , -30°C
Humidity: 58%
Barometer: 30.16 inHg , 1021.3 hPa
Clouds: Clear
Visibility: 8 miles , 13 km
2021/12/04 11:53 PABI 041153Z AUTO 12024G29KT 8SM CLR M24/M30 A3016 RMK AO2 PK WND 12029/1148 SLP286 T12441300 11244 21250 50000 TSNO